createdAt,value
2024-04-30T00:20:54.764Z,89
2024-04-30T00:49:07.741Z,97.11
2024-04-30T01:17:19.848Z,100
2024-04-30T01:45:42.898Z,100
2024-04-30T02:14:05.208Z,98.15
2024-04-30T02:42:17.570Z,100
2024-04-30T03:10:34.596Z,100
2024-04-30T03:38:47.675Z,100
2024-04-30T04:07:06.637Z,100
2024-04-30T04:36:00.231Z,100
2024-04-30T05:05:00.194Z,92.91
2024-04-30T05:34:13.920Z,75.9
2024-04-30T06:03:22.916Z,74.61
2024-04-30T06:31:51.847Z,72.39
2024-04-30T07:01:05.780Z,65.3
2024-04-30T07:30:32.075Z,57.75
2024-04-30T07:59:22.266Z,54.97
2024-04-30T08:28:12.568Z,49.39
2024-04-30T08:57:05.417Z,48.76
2024-04-30T09:26:01.515Z,50.06
2024-04-30T09:54:29.086Z,48.6
2024-04-30T10:23:23.499Z,51.29
2024-04-30T10:52:07.346Z,48.89
2024-04-30T11:20:20.032Z,51.23
2024-04-30T11:48:46.808Z,47.52
2024-04-30T12:17:46.976Z,48.55
2024-04-30T12:46:27.853Z,46.78
2024-04-30T13:15:19.420Z,46.43
2024-04-30T13:44:20.083Z,44.68
2024-04-30T14:13:26.006Z,43.33
2024-04-30T14:42:28.855Z,44.4
2024-04-30T15:11:31.471Z,45.22
2024-04-30T15:40:34.122Z,44.14
2024-04-30T16:09:27.356Z,45.14
2024-04-30T16:38:20.731Z,51.36
2024-04-30T17:07:17.183Z,52.63
2024-04-30T17:36:12.373Z,54.52
2024-04-30T18:05:15.324Z,55.99
2024-04-30T18:34:09.242Z,63.07
2024-04-30T19:02:20.658Z,65.84
2024-04-30T19:30:34.608Z,76.33
2024-04-30T19:58:58.912Z,78.59
2024-04-30T20:27:05.122Z,77.5
2024-04-30T20:55:20.112Z,76.23
2024-04-30T21:23:49.845Z,78.65
2024-04-30T21:52:05.735Z,79.38
2024-04-30T22:20:27.300Z,77.89
2024-04-30T22:48:47.335Z,72.76
2024-04-30T23:17:01.806Z,73.54
2024-04-30T23:45:29.801Z,68.24
